Time;durP1;ratioP1;P1;durP2;ratioP2;P2;SDS_P1;SDS_P2;PMS_P1;PMS_P2;Temp;Humidity;BMP_temperature;BMP_pressure;BME280_temperature;BME280_humidity;BME280_pressure;Samples;Min_cycle;Max_cycle;Signal;HPM_P1;HPM_P2
2023/02/02 00:04:15;;;;;;;0.20;0.10;;;8.20;99.90;;;;;;21229707;27;20445;-68
2023/02/02 00:14:20;;;;;;;0.20;0.10;;;8.40;99.90;;;;;;21270026;27;20415;-68
2023/02/02 00:24:24;;;;;;;0.20;0.10;;;8.30;99.90;;;;;;21221664;27;20427;-69
2023/02/02 00:34:29;;;;;;;0.20;0.10;;;8.50;99.90;;;;;;21214845;27;20411;-68
2023/02/02 00:54:55;;;;;;;0.20;0.10;;;8.20;99.90;;;;;;21221073;27;20430;-68
2023/02/02 01:04:59;;;;;;;0.20;0.10;;;7.70;99.90;;;;;;21218410;27;20413;-69
2023/02/02 01:15:05;;;;;;;0.20;0.10;;;7.80;99.90;;;;;;21236687;27;20405;-68
2023/02/02 01:25:09;;;;;;;0.20;0.10;;;7.80;99.90;;;;;;21216829;27;20508;-67
2023/02/02 01:35:15;;;;;;;0.20;0.10;;;7.60;99.90;;;;;;21199955;27;20436;-66
2023/02/02 01:45:24;;;;;;;0.20;0.00;;;7.10;99.90;;;;;;21209818;27;20450;-67
2023/02/02 01:55:32;;;;;;;0.20;0.00;;;6.90;99.90;;;;;;21233621;27;20523;-66
2023/02/02 02:05:40;;;;;;;0.20;0.10;;;7.00;99.90;;;;;;21229398;27;20456;-67
2023/02/02 02:26:42;;;;;;;0.20;0.10;;;5.90;99.90;;;;;;21231569;27;20973;-67
2023/02/02 02:36:51;;;;;;;0.20;0.10;;;6.00;99.90;;;;;;21224911;27;20975;-67
2023/02/02 02:46:56;;;;;;;0.20;0.10;;;6.10;99.90;;;;;;21233088;27;20481;-67
2023/02/02 02:57:26;;;;;;;0.20;0.00;;;6.20;99.90;;;;;;21246784;27;20447;-67
2023/02/02 03:07:36;;;;;;;0.20;0.10;;;6.40;99.90;;;;;;21246220;27;20458;-67
2023/02/02 03:17:42;;;;;;;0.20;0.10;;;6.60;99.90;;;;;;21227337;27;20469;-68
2023/02/02 03:27:46;;;;;;;0.20;0.10;;;7.00;99.90;;;;;;21244460;27;20416;-67
2023/02/02 03:37:51;;;;;;;0.20;0.10;;;7.60;99.90;;;;;;21223560;27;20389;-67
2023/02/02 03:47:55;;;;;;;0.20;0.10;;;8.20;99.90;;;;;;21242801;27;20884;-67
2023/02/02 03:58:00;;;;;;;0.20;0.00;;;8.00;99.90;;;;;;21241174;27;20401;-67
2023/02/02 04:08:04;;;;;;;0.20;0.10;;;7.90;99.90;;;;;;21241576;27;20418;-68
2023/02/02 04:18:09;;;;;;;0.20;0.10;;;7.20;99.90;;;;;;21240911;27;20752;-67
2023/02/02 04:28:13;;;;;;;0.20;0.10;;;6.80;99.90;;;;;;21217289;27;20887;-68
2023/02/02 04:38:18;;;;;;;0.20;0.10;;;6.80;99.90;;;;;;21236797;27;20389;-68
2023/02/02 04:48:22;;;;;;;0.20;0.10;;;7.90;99.90;;;;;;21166140;27;20402;-68
2023/02/02 04:58:27;;;;;;;0.20;0.10;;;8.00;99.90;;;;;;21152004;28;20901;-68
2023/02/02 05:08:31;;;;;;;0.20;0.10;;;7.80;99.90;;;;;;21132235;28;20745;-68
2023/02/02 05:18:36;;;;;;;0.20;0.10;;;7.40;99.90;;;;;;21149827;27;20900;-68
2023/02/02 05:28:41;;;;;;;0.20;0.10;;;6.90;99.90;;;;;;21149845;28;20398;-69
2023/02/02 05:38:46;;;;;;;0.20;0.10;;;6.90;99.90;;;;;;21148208;28;20394;-69
2023/02/02 05:48:50;;;;;;;0.20;0.00;;;6.40;99.90;;;;;;21112653;28;20497;-69
2023/02/02 05:58:55;;;;;;;0.20;0.10;;;5.90;99.90;;;;;;21128055;28;20438;-69
2023/02/02 06:08:59;;;;;;;0.20;0.10;;;5.50;99.90;;;;;;21128108;28;20413;-69
2023/02/02 06:19:04;;;;;;;0.20;0.00;;;5.80;99.90;;;;;;21146279;28;20400;-69
2023/02/02 06:29:11;;;;;;;0.20;0.10;;;6.80;99.90;;;;;;21144053;28;20943;-67
2023/02/02 06:39:17;;;;;;;0.20;0.10;;;7.60;99.90;;;;;;21143522;28;20452;-69
2023/02/02 06:49:21;;;;;;;0.20;0.10;;;7.60;99.90;;;;;;21142419;28;20399;-69
2023/02/02 06:59:26;;;;;;;0.20;0.10;;;7.40;99.90;;;;;;21121651;28;20387;-69
2023/02/02 07:09:32;;;;;;;0.20;0.10;;;7.50;99.90;;;;;;21139951;28;20424;-69
2023/02/02 07:19:37;;;;;;;0.20;0.10;;;7.20;99.90;;;;;;21142725;28;20913;-72
2023/02/02 07:29:41;;;;;;;0.20;0.10;;;7.30;99.90;;;;;;21141794;28;20461;-67
2023/02/02 07:39:46;;;;;;;0.20;0.10;;;7.30;99.90;;;;;;21136065;28;20758;-65
2023/02/02 07:49:50;;;;;;;0.20;0.00;;;7.30;99.90;;;;;;21135880;28;20543;-68
2023/02/02 07:59:56;;;;;;;0.20;0.10;;;7.50;99.90;;;;;;21132105;28;20791;-69
2023/02/02 08:09:59;;;;;;;0.20;0.10;;;8.30;99.90;;;;;;21117092;27;20422;-69
2023/02/02 08:20:06;;;;;;;0.20;0.00;;;8.80;99.90;;;;;;21197322;27;20397;-68
2023/02/02 08:30:11;;;;;;;0.20;0.10;;;9.00;99.90;;;;;;21233813;27;20484;-65
2023/02/02 08:40:16;;;;;;;0.20;0.10;;;9.20;99.90;;;;;;21215273;27;20499;-67
2023/02/02 08:50:20;;;;;;;0.20;0.10;;;9.20;99.90;;;;;;21211822;27;20756;-68
2023/02/02 09:00:26;;;;;;;0.20;0.00;;;9.80;99.90;;;;;;21230624;27;20404;-69
2023/02/02 09:10:30;;;;;;;0.20;0.00;;;10.30;99.90;;;;;;21226499;27;20465;-69
2023/02/02 09:20:36;;;;;;;0.20;0.10;;;10.70;99.90;;;;;;21183770;27;20482;-68
2023/02/02 09:30:40;;;;;;;0.20;0.10;;;10.70;99.90;;;;;;21145169;28;20450;-67
2023/02/02 09:40:45;;;;;;;0.20;0.10;;;11.10;99.90;;;;;;21196179;27;20753;-68
2023/02/02 09:50:53;;;;;;;0.20;0.10;;;11.80;99.90;;;;;;21229347;27;20447;-69
2023/02/02 10:01:03;;;;;;;0.20;0.10;;;11.70;99.90;;;;;;21225827;27;20431;-68
2023/02/02 10:11:25;;;;;;;0.20;0.10;;;11.80;99.90;;;;;;21216661;27;20850;-67
2023/02/02 10:21:39;;;;;;;0.20;0.10;;;12.60;99.90;;;;;;21227033;27;20397;-68
2023/02/02 10:31:49;;;;;;;0.20;0.10;;;13.10;99.90;;;;;;21226478;27;20404;-68
2023/02/02 10:42:05;;;;;;;0.20;0.10;;;13.60;99.90;;;;;;21224242;28;20419;-67
2023/02/02 10:52:16;;;;;;;0.20;0.10;;;14.80;99.90;;;;;;21224155;28;20393;-68
2023/02/02 11:02:21;;;;;;;0.20;0.10;;;16.00;99.90;;;;;;21226305;27;20528;-68
2023/02/02 11:12:31;;;;;;;0.20;0.10;;;16.20;99.90;;;;;;21236647;27;20409;-69
2023/02/02 11:22:38;;;;;;;0.20;0.10;;;16.10;99.90;;;;;;21240831;27;20975;-69
2023/02/02 11:32:42;;;;;;;0.20;0.10;;;17.00;99.90;;;;;;21222588;27;20416;-69
2023/02/02 11:42:48;;;;;;;0.20;0.10;;;17.00;99.90;;;;;;21239348;27;20436;-68
2023/02/02 11:52:52;;;;;;;0.20;0.10;;;17.40;99.90;;;;;;21240636;27;21030;-68
2023/02/02 12:02:57;;;;;;;0.20;0.10;;;17.90;99.90;;;;;;21237754;27;20401;-68
2023/02/02 12:13:08;;;;;;;0.20;0.00;;;18.10;99.90;;;;;;21158178;27;20504;-69
2023/02/02 12:23:33;;;;;;;0.20;0.00;;;17.90;99.90;;;;;;21152447;28;20418;-68
2023/02/02 12:33:45;;;;;;;0.20;0.10;;;17.70;99.90;;;;;;21151159;28;20754;-69
2023/02/02 12:43:55;;;;;;;0.20;0.10;;;18.50;99.90;;;;;;21150809;28;20471;-68
2023/02/02 12:54:17;;;;;;;0.20;0.10;;;18.60;99.90;;;;;;21150746;28;20878;-68
2023/02/02 13:05:01;;;;;;;0.20;0.10;;;18.80;99.90;;;;;;21148296;28;20449;-67
2023/02/02 13:15:08;;;;;;;0.20;0.10;;;18.60;99.90;;;;;;21147124;28;20394;-68
2023/02/02 13:25:22;;;;;;;0.20;0.00;;;18.80;99.90;;;;;;21146162;28;20397;-68
2023/02/02 13:35:32;;;;;;;0.20;0.10;;;19.00;99.90;;;;;;21141508;28;20769;-70
2023/02/02 13:45:49;;;;;;;0.20;0.10;;;18.20;99.90;;;;;;21141156;28;20417;-67
2023/02/02 13:56:09;;;;;;;0.20;0.10;;;18.50;99.90;;;;;;21145611;28;20394;-68
2023/02/02 14:06:18;;;;;;;0.20;0.00;;;19.10;99.90;;;;;;21145552;28;20422;-67
2023/02/02 14:16:23;;;;;;;0.20;0.08;;;18.70;99.90;;;;;;21143817;28;20486;-67
2023/02/02 14:26:46;;;;;;;0.20;0.10;;;19.30;99.90;;;;;;21141241;28;20437;-68
2023/02/02 14:36:58;;;;;;;0.20;0.10;;;19.70;99.90;;;;;;21146961;28;20399;-68
2023/02/02 14:47:24;;;;;;;0.20;0.00;;;20.00;99.90;;;;;;21240087;27;20921;-68
2023/02/02 14:57:31;;;;;;;0.20;0.00;;;20.40;99.90;;;;;;21226302;27;20400;-68
2023/02/02 15:07:55;;;;;;;0.20;0.10;;;19.90;99.90;;;;;;21211482;27;20558;-69
2023/02/02 15:18:07;;;;;;;0.20;0.10;;;19.80;99.90;;;;;;21139198;28;20387;-69
2023/02/02 15:28:21;;;;;;;0.20;0.00;;;19.80;99.90;;;;;;21155257;28;20513;-68
2023/02/02 15:38:34;;;;;;;0.20;0.10;;;19.80;99.90;;;;;;21155561;28;20415;-69
2023/02/02 15:48:42;;;;;;;0.20;0.10;;;18.60;99.90;;;;;;21135259;28;20398;-69
2023/02/02 15:58:48;;;;;;;0.20;0.10;;;17.20;99.90;;;;;;21153398;28;20409;-68
2023/02/02 16:08:54;;;;;;;0.20;0.10;;;17.00;99.90;;;;;;21152413;28;20422;-69
2023/02/02 16:19:11;;;;;;;0.20;0.10;;;17.20;99.90;;;;;;21151518;28;20394;-69
2023/02/02 16:29:17;;;;;;;0.20;0.10;;;16.80;99.90;;;;;;21148704;28;20394;-68
2023/02/02 16:39:24;;;;;;;0.20;0.10;;;15.90;99.90;;;;;;21211869;27;20881;-69
2023/02/02 16:49:30;;;;;;;0.20;0.10;;;14.20;99.90;;;;;;21233083;27;21072;-69
2023/02/02 16:59:37;;;;;;;0.20;0.10;;;14.20;99.90;;;;;;21234461;27;21125;-68
2023/02/02 17:09:44;;;;;;;0.20;0.05;;;13.20;99.90;;;;;;21190306;27;20416;-69
2023/02/02 17:19:47;;;;;;;0.20;0.10;;;12.90;99.90;;;;;;21232609;27;20396;-68
2023/02/02 17:29:54;;;;;;;0.20;0.10;;;12.40;99.90;;;;;;21230657;27;20427;-67
2023/02/02 17:39:58;;;;;;;0.20;0.10;;;11.50;99.90;;;;;;21210593;27;20421;-68
2023/02/02 17:50:03;;;;;;;0.20;0.10;;;10.90;99.90;;;;;;21229453;27;20411;-68
2023/02/02 18:00:08;;;;;;;0.20;0.10;;;10.80;99.90;;;;;;21226379;27;20405;-67
2023/02/02 18:10:14;;;;;;;0.20;0.10;;;10.50;99.90;;;;;;21223219;27;20413;-68
2023/02/02 18:20:19;;;;;;;0.20;0.10;;;10.00;99.90;;;;;;21222945;27;20397;-69
2023/02/02 18:30:24;;;;;;;0.20;0.10;;;9.90;99.90;;;;;;21223405;27;20413;-67
2023/02/02 18:40:28;;;;;;;0.20;0.10;;;9.50;99.90;;;;;;21149163;27;20406;-68
2023/02/02 18:50:35;;;;;;;0.20;0.10;;;9.50;99.90;;;;;;21136894;28;20414;-69
2023/02/02 19:00:39;;;;;;;0.20;0.10;;;9.10;99.90;;;;;;21137344;28;20899;-69
2023/02/02 19:10:45;;;;;;;0.20;0.10;;;8.90;99.90;;;;;;21138092;28;20415;-68
2023/02/02 19:20:49;;;;;;;0.20;0.10;;;8.90;99.90;;;;;;21135241;28;20399;-68
2023/02/02 19:30:57;;;;;;;0.20;0.10;;;8.70;99.90;;;;;;21139949;28;20411;-68
2023/02/02 19:41:02;;;;;;;0.20;0.10;;;8.50;99.90;;;;;;21202102;27;20500;-69
2023/02/02 19:51:35;;;;;;;0.20;0.10;;;8.60;99.90;;;;;;21234279;27;20423;-69
2023/02/02 20:01:39;;;;;;;0.20;0.10;;;8.30;99.90;;;;;;21215602;27;20397;-69
2023/02/02 20:11:46;;;;;;;0.20;0.10;;;8.20;99.90;;;;;;21216637;27;20776;-69
2023/02/02 20:21:52;;;;;;;0.20;0.10;;;7.90;99.90;;;;;;21228980;27;21127;-68
2023/02/02 20:31:59;;;;;;;0.20;0.10;;;7.90;99.90;;;;;;21230442;27;20755;-68
2023/02/02 20:42:04;;;;;;;0.20;0.10;;;7.60;99.90;;;;;;21231544;27;20386;-67
2023/02/02 20:52:17;;;;;;;0.20;0.10;;;7.50;99.90;;;;;;21212819;27;20842;-68
2023/02/02 21:02:21;;;;;;;0.20;0.10;;;7.60;99.90;;;;;;21230705;27;20417;-67
2023/02/02 21:12:26;;;;;;;0.20;0.10;;;7.50;99.90;;;;;;21227831;27;20455;-67
2023/02/02 21:22:34;;;;;;;0.20;0.10;;;7.40;99.90;;;;;;21227501;27;20397;-67
2023/02/02 21:32:39;;;;;;;0.20;0.10;;;7.40;99.90;;;;;;21229362;27;21070;-69
2023/02/02 21:42:48;;;;;;;0.20;0.10;;;7.40;99.90;;;;;;21230757;27;20393;-69
2023/02/02 21:53:07;;;;;;;0.20;0.10;;;7.30;99.90;;;;;;21229232;27;20425;-67
2023/02/02 22:03:26;;;;;;;0.20;0.10;;;7.40;99.90;;;;;;21231282;27;20399;-68
2023/02/02 22:13:35;;;;;;;0.20;0.10;;;7.50;99.90;;;;;;21230701;27;20409;-68
2023/02/02 22:23:39;;;;;;;0.20;0.10;;;7.80;99.90;;;;;;21229916;27;20397;-67
2023/02/02 22:33:44;;;;;;;0.20;0.08;;;7.60;99.90;;;;;;21227847;27;20405;-68
2023/02/02 22:43:51;;;;;;;0.20;0.10;;;7.50;99.90;;;;;;21229822;28;20397;-69
2023/02/02 22:53:57;;;;;;;0.20;0.10;;;7.80;99.90;;;;;;21230727;27;20794;-67
2023/02/02 23:04:01;;;;;;;0.20;0.10;;;8.10;99.90;;;;;;21234246;27;20405;-68
2023/02/02 23:14:06;;;;;;;0.20;0.10;;;7.60;99.90;;;;;;21245199;27;20404;-68
2023/02/02 23:24:10;;;;;;;0.20;0.10;;;7.50;99.90;;;;;;21244259;27;20484;-68
2023/02/02 23:34:16;;;;;;;0.20;0.10;;;7.50;99.90;;;;;;21243949;27;20827;-69
2023/02/02 23:44:20;;;;;;;0.20;0.10;;;7.50;99.90;;;;;;21243907;27;20389;-68
2023/02/02 23:54:25;;;;;;;0.20;0.07;;;7.50;99.90;;;;;;21242269;27;20467;-68
